Yalesville, Connecticut
Current Conditions -  °F | °C
As of 1:53 PM on Monday 20 Oct 2014 (Local Time) from KMMK Reporting Station
Few Clouds Few Clouds  
Wind Chill: 55°   Ceiling: Unl
Heat Index: 55°   Visibility: 10mi
Dew Point: 35°   Wind: 7mph
Humidity: 47%   Direction: 220°SW
Pressure: 30.03"   Gusts: NA
Location:  41.4596°N, 72.818°W
Report Text: KMMK 201753Z AUTO 22006KT 10SM FEW110 13/02 A3003 RMK AO2 SLP169 T01280017 10128 20006 56022 TSNO
Loading
Personal Weather Stations






























Interactive Weather Map
Tropical Storm Tracking
New forecast layout! Learn more

10-Day Weather Forecast

Advertisements
Track Severe Weather on mobile